Time;durP1;ratioP1;P1;durP2;ratioP2;P2;SDS_P1;SDS_P2;PMS_P1;PMS_P2;Temp;Humidity;BMP_temperature;BMP_pressure;BME280_temperature;BME280_humidity;BME280_pressure;Samples;Min_cycle;Max_cycle;Signal;HPM_P1;HPM_P2
2024/04/19 00:01:30;;;;;;;0.30;0.20;;;8.30;99.90;;;;;;5513532;25;20662;-73
2024/04/19 00:03:56;;;;;;;0.45;0.45;;;8.30;99.90;;;;;;5513056;25;20784;-74
2024/04/19 00:06:21;;;;;;;0.30;0.30;;;8.20;99.90;;;;;;5513308;26;20705;-74
2024/04/19 00:08:47;;;;;;;0.30;0.30;;;8.20;99.90;;;;;;5513699;25;20452;-79
2024/04/19 00:11:13;;;;;;;0.30;0.30;;;8.20;99.90;;;;;;5513540;25;20239;-79
2024/04/19 00:13:38;;;;;;;0.30;0.20;;;8.10;99.90;;;;;;5512122;26;20286;-79
2024/04/19 00:16:04;;;;;;;0.30;0.20;;;8.00;99.90;;;;;;5513414;26;20231;-74
2024/04/19 00:18:30;;;;;;;0.30;0.20;;;8.00;99.90;;;;;;5513809;25;20377;-73
2024/04/19 00:20:56;;;;;;;0.50;0.50;;;8.00;99.90;;;;;;5513648;25;20821;-73
2024/04/19 00:23:23;;;;;;;0.30;0.20;;;8.00;99.90;;;;;;5511923;26;20568;-79
2024/04/19 00:25:49;;;;;;;0.30;0.20;;;7.90;99.90;;;;;;5512894;25;20714;-78
2024/04/19 00:28:15;;;;;;;0.60;0.60;;;7.90;99.90;;;;;;5512271;26;20247;-74
2024/04/19 00:30:41;;;;;;;0.30;0.20;;;7.90;99.90;;;;;;5513053;26;20907;-74
2024/04/19 00:33:07;;;;;;;0.30;0.30;;;7.80;99.90;;;;;;5513386;26;20227;-74
2024/04/19 00:35:32;;;;;;;0.30;0.20;;;7.80;99.90;;;;;;5511255;26;20941;-78
2024/04/19 00:37:58;;;;;;;0.30;0.20;;;7.80;99.90;;;;;;5511340;26;20702;-75
2024/04/19 00:40:24;;;;;;;0.30;0.20;;;7.80;99.90;;;;;;5511935;26;20450;-79
2024/04/19 00:42:50;;;;;;;0.30;0.20;;;7.70;99.90;;;;;;5511005;26;20752;-78
2024/04/19 00:45:32;;;;;;;0.45;0.45;;;7.70;99.90;;;;;;5511504;26;20278;-74
2024/04/19 00:47:59;;;;;;;0.30;0.30;;;7.70;99.90;;;;;;5512902;25;20269;-78
2024/04/19 00:50:25;;;;;;;0.30;0.20;;;7.70;99.90;;;;;;5510461;26;20270;-74
2024/04/19 00:52:51;;;;;;;0.30;0.30;;;7.60;99.90;;;;;;5512903;25;20284;-73
2024/04/19 00:55:18;;;;;;;0.30;0.20;;;7.60;99.90;;;;;;5512737;25;20219;-73
2024/04/19 00:57:45;;;;;;;2.70;2.05;;;7.60;99.90;;;;;;5512964;25;20406;-78
2024/04/19 01:00:11;;;;;;;0.40;0.30;;;7.60;99.90;;;;;;5512621;25;20216;-78
2024/04/19 01:02:37;;;;;;;0.30;0.23;;;7.60;99.90;;;;;;5510733;26;20453;-78
2024/04/19 01:05:03;;;;;;;0.30;0.20;;;7.60;99.90;;;;;;5512682;25;20752;-79
2024/04/19 01:07:29;;;;;;;0.40;0.40;;;7.60;99.90;;;;;;5510672;26;20805;-78
2024/04/19 01:09:55;;;;;;;0.30;0.20;;;7.60;99.90;;;;;;5512863;25;20266;-78
2024/04/19 01:12:20;;;;;;;0.30;0.20;;;7.60;99.90;;;;;;5510665;26;20464;-79
2024/04/19 01:14:46;;;;;;;0.70;0.70;;;7.60;99.90;;;;;;5512836;25;20666;-74
2024/04/19 01:17:12;;;;;;;0.30;0.30;;;7.60;99.90;;;;;;5513908;25;20283;-78
2024/04/19 01:19:37;;;;;;;1.27;0.93;;;7.50;99.90;;;;;;5516879;25;20274;-74
2024/04/19 01:22:05;;;;;;;0.30;0.20;;;7.60;99.90;;;;;;5513964;26;20361;-74
2024/04/19 01:24:46;;;;;;;0.30;0.20;;;7.60;99.90;;;;;;5516445;25;20516;-78
2024/04/19 01:27:12;;;;;;;0.30;0.20;;;7.60;99.90;;;;;;5514285;26;20235;-78
2024/04/19 01:29:38;;;;;;;0.30;0.20;;;7.50;99.90;;;;;;5516280;25;20327;-79
2024/04/19 01:32:04;;;;;;;0.30;0.20;;;7.50;99.90;;;;;;5515739;25;20228;-74
2024/04/19 01:34:30;;;;;;;0.30;0.20;;;7.50;99.90;;;;;;5516345;25;20345;-73
2024/04/19 01:36:56;;;;;;;0.30;0.20;;;7.50;99.90;;;;;;5515592;26;20641;-78
2024/04/19 01:39:22;;;;;;;0.40;0.30;;;7.50;99.90;;;;;;5516242;25;20823;-73
2024/04/19 01:41:48;;;;;;;0.63;0.63;;;7.40;99.90;;;;;;5513913;26;20285;-73
2024/04/19 01:44:14;;;;;;;0.30;0.20;;;7.40;99.90;;;;;;5515311;26;20861;-78
2024/04/19 01:46:40;;;;;;;0.30;0.20;;;7.40;99.90;;;;;;5515471;25;20283;-76
2024/04/19 01:49:05;;;;;;;0.30;0.20;;;7.40;99.90;;;;;;5515888;25;20243;-73
2024/04/19 01:51:31;;;;;;;0.80;0.70;;;7.30;99.90;;;;;;5513683;26;20636;-73
2024/04/19 01:53:57;;;;;;;0.30;0.30;;;7.30;99.90;;;;;;5516087;25;20465;-78
2024/04/19 01:56:23;;;;;;;0.63;0.63;;;7.30;99.90;;;;;;5515445;26;20278;-73
2024/04/19 01:58:48;;;;;;;0.30;0.20;;;7.20;99.90;;;;;;5514125;26;20490;-73
2024/04/19 02:01:15;;;;;;;0.30;0.30;;;7.20;99.90;;;;;;5515793;26;20231;-74
2024/04/19 02:03:41;;;;;;;0.40;0.40;;;7.10;99.90;;;;;;5513699;26;20808;-78
2024/04/19 02:06:12;;;;;;;0.30;0.30;;;7.10;99.90;;;;;;5515095;25;20278;-73
2024/04/19 02:08:38;;;;;;;1.00;0.90;;;7.10;99.90;;;;;;5513676;26;20247;-73
2024/04/19 02:11:04;;;;;;;0.85;0.85;;;7.00;99.90;;;;;;5513229;26;20659;-73
2024/04/19 02:13:30;;;;;;;0.40;0.40;;;7.00;99.90;;;;;;5516027;25;20245;-73
2024/04/19 02:15:56;;;;;;;0.30;0.20;;;7.00;99.90;;;;;;5515106;26;20228;-77
2024/04/19 02:18:21;;;;;;;0.60;0.60;;;7.00;99.90;;;;;;5513580;26;20520;-73
2024/04/19 02:20:47;;;;;;;0.60;0.60;;;6.90;99.90;;;;;;5515447;25;20223;-78
2024/04/19 02:23:13;;;;;;;0.30;0.20;;;6.90;99.90;;;;;;5515230;25;20448;-73
2024/04/19 02:25:38;;;;;;;0.50;0.50;;;6.90;99.90;;;;;;5515643;25;20269;-77
2024/04/19 02:31:00;;;;;;;0.30;0.20;;;7.00;99.90;;;;;;5515141;26;20262;-79
2024/04/19 02:33:27;;;;;;;0.30;0.30;;;6.90;99.90;;;;;;5515066;25;20538;-73
2024/04/19 02:35:53;;;;;;;0.45;0.45;;;6.90;99.90;;;;;;5514796;25;20327;-73
2024/04/19 02:38:18;;;;;;;0.60;0.60;;;6.90;99.90;;;;;;5513097;26;20255;-73
2024/04/19 02:40:44;;;;;;;0.47;0.47;;;6.90;99.90;;;;;;5514957;25;20277;-76
2024/04/19 02:43:09;;;;;;;0.30;0.20;;;6.90;99.90;;;;;;5514842;26;20339;-74
2024/04/19 02:45:40;;;;;;;0.30;0.23;;;6.80;99.90;;;;;;5506396;26;20236;-79
2024/04/19 02:48:07;;;;;;;0.30;0.20;;;6.90;99.90;;;;;;5478263;26;20716;-73
2024/04/19 02:50:33;;;;;;;0.60;0.60;;;6.90;99.90;;;;;;5485044;26;20232;-73
2024/04/19 02:52:59;;;;;;;0.30;0.30;;;6.80;99.90;;;;;;5514762;25;20262;-78
2024/04/19 02:55:26;;;;;;;0.30;0.20;;;6.80;99.90;;;;;;5514849;25;20700;-78
2024/04/19 02:57:52;;;;;;;1.80;1.73;;;6.80;99.90;;;;;;5514565;25;20223;-73
2024/04/19 03:00:18;;;;;;;0.30;0.30;;;6.80;99.90;;;;;;5514898;26;20673;-78
2024/04/19 03:02:44;;;;;;;0.57;0.57;;;6.80;99.90;;;;;;5514567;26;20476;-78
2024/04/19 03:05:09;;;;;;;0.40;0.40;;;6.80;99.90;;;;;;5514212;25;20231;-78
2024/04/19 03:07:35;;;;;;;0.30;0.20;;;6.80;99.90;;;;;;5511740;26;20271;-78
2024/04/19 03:10:00;;;;;;;0.53;0.53;;;6.90;99.90;;;;;;5514822;25;20323;-73
2024/04/19 03:12:26;;;;;;;0.30;0.30;;;6.90;99.90;;;;;;5512532;26;20661;-79
2024/04/19 03:14:52;;;;;;;0.30;0.30;;;6.90;99.90;;;;;;5514784;25;20689;-79
2024/04/19 03:17:17;;;;;;;0.40;0.40;;;6.80;99.90;;;;;;5513851;25;20248;-78
2024/04/19 03:19:43;;;;;;;0.83;0.83;;;6.90;99.90;;;;;;5514788;25;21112;-78
2024/04/19 03:22:09;;;;;;;0.35;0.30;;;6.90;99.90;;;;;;5512258;26;20577;-79
2024/04/19 03:24:35;;;;;;;0.30;0.20;;;6.90;99.90;;;;;;5512729;26;20262;-73
2024/04/19 03:27:04;;;;;;;0.30;0.20;;;6.90;99.90;;;;;;5513823;26;21070;-79
2024/04/19 03:29:30;;;;;;;0.50;0.50;;;6.90;99.90;;;;;;5513867;25;20523;-73
2024/04/19 03:31:55;;;;;;;0.83;0.83;;;6.90;99.90;;;;;;5513838;25;20730;-79
2024/04/19 03:34:22;;;;;;;0.40;0.40;;;6.90;99.90;;;;;;5512697;26;20472;-73
2024/04/19 03:36:48;;;;;;;0.68;0.68;;;6.90;99.90;;;;;;5506253;26;20623;-78
2024/04/19 03:39:14;;;;;;;0.60;0.60;;;6.90;99.90;;;;;;5476846;26;20640;-73
2024/04/19 03:41:42;;;;;;;1.17;1.17;;;6.80;99.90;;;;;;5499862;26;20757;-79
2024/04/19 03:46:52;;;;;;;0.30;0.20;;;6.80;99.90;;;;;;5513072;26;20335;-73
2024/04/19 03:49:18;;;;;;;0.30;0.20;;;6.90;99.90;;;;;;5511632;26;20247;-78
2024/04/19 03:51:43;;;;;;;0.30;0.20;;;6.90;99.90;;;;;;5505377;26;20364;-78
2024/04/19 03:54:09;;;;;;;0.30;0.20;;;6.80;99.90;;;;;;5476749;26;20279;-74
2024/04/19 03:56:34;;;;;;;1.07;0.97;;;6.80;99.90;;;;;;5498738;26;20271;-78
2024/04/19 03:59:00;;;;;;;0.30;0.30;;;6.80;99.90;;;;;;5513553;26;20243;-79
2024/04/19 04:01:26;;;;;;;0.77;0.77;;;6.80;99.90;;;;;;5512889;26;20278;-74
2024/04/19 04:03:52;;;;;;;0.37;0.30;;;6.80;99.90;;;;;;5510383;26;20324;-73
2024/04/19 04:06:18;;;;;;;0.30;0.20;;;6.70;99.90;;;;;;5510831;26;20464;-78
2024/04/19 04:08:46;;;;;;;0.30;0.20;;;6.70;99.90;;;;;;5511510;26;20351;-73
2024/04/19 04:11:12;;;;;;;0.30;0.20;;;6.70;99.90;;;;;;5512978;25;20512;-78
2024/04/19 04:13:41;;;;;;;0.30;0.30;;;6.70;99.90;;;;;;5512801;25;20251;-79
2024/04/19 04:16:08;;;;;;;0.30;0.20;;;6.70;99.90;;;;;;5513164;26;20227;-74
2024/04/19 04:18:34;;;;;;;0.30;0.20;;;6.70;99.90;;;;;;5512319;26;20274;-78
2024/04/19 04:21:00;;;;;;;2.88;1.48;;;6.70;99.90;;;;;;5513273;25;20274;-73
2024/04/19 04:23:27;;;;;;;0.30;0.20;;;6.70;99.90;;;;;;5512360;25;20271;-73
2024/04/19 04:25:52;;;;;;;0.30;0.20;;;6.70;99.90;;;;;;5512725;25;20227;-74
2024/04/19 04:28:18;;;;;;;0.60;0.60;;;6.70;99.90;;;;;;5511475;26;20793;-79
2024/04/19 04:30:44;;;;;;;0.30;0.30;;;6.70;99.90;;;;;;5511407;26;20243;-73
2024/04/19 04:33:09;;;;;;;0.70;0.70;;;6.70;99.90;;;;;;5491497;26;20290;-79
2024/04/19 04:35:38;;;;;;;0.30;0.20;;;6.70;99.90;;;;;;5487647;25;20287;-74
2024/04/19 04:38:05;;;;;;;0.40;0.30;;;6.70;99.90;;;;;;5476033;26;20724;-73
2024/04/19 04:40:32;;;;;;;0.30;0.22;;;6.70;99.90;;;;;;5479938;26;20568;-78
2024/04/19 04:42:58;;;;;;;1.50;1.40;;;6.70;99.90;;;;;;5509754;26;20247;-79
2024/04/19 04:45:24;;;;;;;0.30;0.30;;;6.80;99.90;;;;;;5512401;25;20492;-73
2024/04/19 04:47:49;;;;;;;1.47;1.17;;;6.80;99.90;;;;;;5512012;25;20231;-79
2024/04/19 04:50:15;;;;;;;1.37;0.97;;;6.80;99.90;;;;;;5512654;25;20436;-73
2024/04/19 04:52:41;;;;;;;0.40;0.40;;;6.90;99.90;;;;;;5492015;25;20232;-73
2024/04/19 04:55:06;;;;;;;1.90;1.80;;;6.90;99.90;;;;;;5480921;25;20269;-73
2024/04/19 04:57:32;;;;;;;0.30;0.20;;;7.00;99.90;;;;;;5500844;26;20228;-78
2024/04/19 04:59:58;;;;;;;0.30;0.20;;;7.00;99.90;;;;;;5505956;26;20992;-78
2024/04/19 05:02:24;;;;;;;0.30;0.20;;;7.00;99.90;;;;;;5486452;25;20903;-73
2024/04/19 05:04:50;;;;;;;0.30;0.20;;;7.00;99.90;;;;;;5486345;26;20489;-78
2024/04/19 05:07:15;;;;;;;0.80;0.80;;;7.10;99.90;;;;;;5492885;26;20302;-73
2024/04/19 05:09:41;;;;;;;0.90;0.70;;;7.20;99.90;;;;;;5490869;25;20240;-78
2024/04/19 05:12:08;;;;;;;0.30;0.20;;;7.20;99.90;;;;;;5480514;26;20236;-79
2024/04/19 05:14:34;;;;;;;0.30;0.30;;;7.30;99.90;;;;;;5488308;26;20388;-78
2024/04/19 05:17:00;;;;;;;0.30;0.20;;;7.40;99.90;;;;;;5476121;26;20662;-73
2024/04/19 05:19:25;;;;;;;1.43;1.17;;;7.40;99.90;;;;;;5490644;26;20436;-73
2024/04/19 05:21:51;;;;;;;0.30;0.20;;;7.50;99.90;;;;;;5510537;26;20444;-73
2024/04/19 05:24:17;;;;;;;0.30;0.20;;;7.60;99.90;;;;;;5512061;26;20231;-78
2024/04/19 05:26:42;;;;;;;0.97;0.97;;;7.60;99.90;;;;;;5485013;26;20300;-81
2024/04/19 05:29:09;;;;;;;1.03;0.60;;;7.70;99.90;;;;;;5483141;26;20736;-73
2024/04/19 05:31:35;;;;;;;0.30;0.20;;;7.80;99.90;;;;;;5485801;26;20670;-73
2024/04/19 05:34:00;;;;;;;0.40;0.37;;;7.80;99.90;;;;;;5489810;26;20642;-73
2024/04/19 05:36:26;;;;;;;0.30;0.20;;;7.90;99.90;;;;;;5494287;26;20228;-78
2024/04/19 05:38:52;;;;;;;0.30;0.20;;;8.00;99.90;;;;;;5476681;26;20756;-79
2024/04/19 05:41:17;;;;;;;0.37;0.30;;;8.10;99.90;;;;;;5481907;26;20245;-79
2024/04/19 05:43:46;;;;;;;0.40;0.37;;;8.10;99.90;;;;;;5499288;26;20291;-73
2024/04/19 05:46:11;;;;;;;0.30;0.20;;;8.20;99.90;;;;;;5497387;26;20748;-73
2024/04/19 05:48:37;;;;;;;0.60;0.60;;;8.20;99.90;;;;;;5489311;25;20237;-79
2024/04/19 05:51:03;;;;;;;0.33;0.30;;;8.30;99.90;;;;;;5485501;26;20576;-77
2024/04/19 05:53:29;;;;;;;0.40;0.40;;;8.40;99.90;;;;;;5499640;26;20274;-73
2024/04/19 05:55:54;;;;;;;0.30;0.30;;;8.50;99.90;;;;;;5470475;26;20508;-73
2024/04/19 05:58:21;;;;;;;0.70;0.70;;;8.60;99.90;;;;;;5470333;26;20796;-74
2024/04/19 06:00:47;;;;;;;0.30;0.30;;;8.70;99.90;;;;;;5498253;26;20625;-73
2024/04/19 06:03:13;;;;;;;0.90;0.82;;;8.70;99.90;;;;;;5495385;25;20263;-74
2024/04/19 06:05:39;;;;;;;0.30;0.30;;;8.70;99.90;;;;;;5485296;26;20225;-79
2024/04/19 06:08:07;;;;;;;0.30;0.20;;;8.80;99.90;;;;;;5488521;26;20301;-79
2024/04/19 06:10:34;;;;;;;0.30;0.30;;;8.80;99.90;;;;;;5487567;26;20296;-75
2024/04/19 06:12:59;;;;;;;0.30;0.30;;;8.90;99.90;;;;;;5483038;26;20232;-74
2024/04/19 06:15:25;;;;;;;0.30;0.20;;;9.00;99.90;;;;;;5483811;26;20469;-74
2024/04/19 06:17:51;;;;;;;0.40;0.40;;;9.10;99.90;;;;;;5484347;26;20251;-73
2024/04/19 06:20:16;;;;;;;0.30;0.20;;;9.20;99.90;;;;;;5479105;26;20224;-76
2024/04/19 06:22:42;;;;;;;1.50;1.43;;;9.30;99.90;;;;;;5485441;26;20457;-73
2024/04/19 06:25:08;;;;;;;0.30;0.20;;;9.30;99.90;;;;;;5485102;26;20450;-79
2024/04/19 06:27:34;;;;;;;0.70;0.70;;;9.40;99.90;;;;;;5489236;26;20279;-74
2024/04/19 06:29:59;;;;;;;0.30;0.20;;;9.50;99.90;;;;;;5489863;26;20240;-79
2024/04/19 06:32:25;;;;;;;0.30;0.20;;;9.50;99.90;;;;;;5471877;26;20337;-80
2024/04/19 06:34:51;;;;;;;0.33;0.30;;;9.60;99.90;;;;;;5486566;26;20258;-74
2024/04/19 06:37:17;;;;;;;0.30;0.20;;;9.60;99.90;;;;;;5485052;26;20680;-74
2024/04/19 06:39:43;;;;;;;2.20;1.30;;;9.70;99.90;;;;;;5483072;25;20279;-79
2024/04/19 06:42:08;;;;;;;0.30;0.20;;;9.80;99.90;;;;;;5499936;26;20232;-79
2024/04/19 06:44:34;;;;;;;0.30;0.20;;;9.90;99.90;;;;;;5508207;25;20344;-78
2024/04/19 06:47:00;;;;;;;0.60;0.60;;;10.00;99.90;;;;;;5490207;26;20748;-74
2024/04/19 06:49:25;;;;;;;0.30;0.20;;;10.00;99.90;;;;;;5486615;26;20902;-79
2024/04/19 06:51:51;;;;;;;0.87;0.87;;;10.10;99.90;;;;;;5484905;26;20236;-78
2024/04/19 06:54:17;;;;;;;0.30;0.30;;;10.20;99.90;;;;;;5488962;26;20857;-80
2024/04/19 06:56:42;;;;;;;0.30;0.20;;;10.20;99.90;;;;;;5486159;26;20302;-74
2024/04/19 06:59:09;;;;;;;0.30;0.20;;;10.30;99.90;;;;;;5490538;25;20320;-79
2024/04/19 07:01:35;;;;;;;0.30;0.20;;;10.40;99.90;;;;;;5484329;26;20241;-74
2024/04/19 07:04:02;;;;;;;0.30;0.20;;;10.40;99.90;;;;;;5489140;26;20251;-74
2024/04/19 07:06:27;;;;;;;0.30;0.20;;;10.50;99.90;;;;;;5491004;26;20713;-74
2024/04/19 07:08:53;;;;;;;0.87;0.87;;;10.60;99.90;;;;;;5471915;26;20320;-79
2024/04/19 07:11:19;;;;;;;0.30;0.20;;;10.70;99.90;;;;;;5489149;25;20231;-74
2024/04/19 07:13:46;;;;;;;0.30;0.20;;;10.70;99.90;;;;;;5487857;26;20279;-73
2024/04/19 07:16:13;;;;;;;1.42;1.33;;;10.80;99.90;;;;;;5481623;26;20787;-74
2024/04/19 07:18:38;;;;;;;0.30;0.20;;;10.90;99.90;;;;;;5489834;26;20240;-77
2024/04/19 07:21:04;;;;;;;0.30;0.20;;;11.00;99.90;;;;;;5476320;26;20236;-75
2024/04/19 07:23:30;;;;;;;0.30;0.20;;;11.10;99.90;;;;;;5483688;26;20751;-79
2024/04/19 07:25:56;;;;;;;0.30;0.20;;;11.10;99.90;;;;;;5505992;25;21011;-77
2024/04/19 07:28:22;;;;;;;0.70;0.70;;;11.20;99.90;;;;;;5510333;25;20791;-79
2024/04/19 07:30:47;;;;;;;0.30;0.30;;;11.20;99.90;;;;;;5502080;25;20331;-74
2024/04/19 07:33:13;;;;;;;0.40;0.40;;;11.30;99.90;;;;;;5474780;26;20237;-79
2024/04/19 07:35:39;;;;;;;0.30;0.30;;;11.40;99.90;;;;;;5509104;26;20257;-74
2024/04/19 07:38:04;;;;;;;0.30;0.20;;;11.50;99.90;;;;;;5507600;26;20291;-73
2024/04/19 07:40:33;;;;;;;0.30;0.20;;;11.60;99.90;;;;;;5475116;26;21094;-79
2024/04/19 07:42:59;;;;;;;0.40;0.40;;;11.60;99.90;;;;;;5491218;26;20272;-78
2024/04/19 07:45:24;;;;;;;0.40;0.20;;;11.60;99.90;;;;;;5480252;26;20277;-79
2024/04/19 07:47:51;;;;;;;0.30;0.20;;;11.70;99.90;;;;;;5494133;26;20233;-78
2024/04/19 07:50:16;;;;;;;0.30;0.20;;;11.70;99.90;;;;;;5471342;26;20546;-78
2024/04/19 07:52:42;;;;;;;0.70;0.70;;;11.80;99.90;;;;;;5472927;26;20597;-73
2024/04/19 07:55:08;;;;;;;0.30;0.20;;;11.80;99.90;;;;;;5475971;26;20236;-79
2024/04/19 07:57:34;;;;;;;0.30;0.20;;;11.90;99.90;;;;;;5474566;26;20244;-79
2024/04/19 08:00:01;;;;;;;0.30;0.20;;;11.90;99.90;;;;;;5478785;26;20237;-78
2024/04/19 08:02:27;;;;;;;0.30;0.20;;;12.00;99.90;;;;;;5471613;26;20466;-73
2024/04/19 08:04:53;;;;;;;0.30;0.30;;;12.10;99.90;;;;;;5476610;26;20249;-79
2024/04/19 08:07:23;;;;;;;2.00;1.38;;;12.20;99.20;;;;;;5483598;26;20324;-79
2024/04/19 08:09:52;;;;;;;0.30;0.20;;;12.40;99.80;;;;;;5479268;26;20623;-74
2024/04/19 08:12:17;;;;;;;0.30;0.20;;;12.50;98.60;;;;;;5482958;26;20999;-78
2024/04/19 08:14:43;;;;;;;0.30;0.20;;;12.60;99.00;;;;;;5494954;26;20536;-79
2024/04/19 08:17:08;;;;;;;0.30;0.20;;;12.70;99.40;;;;;;5487248;26;20699;-79
2024/04/19 08:19:34;;;;;;;0.30;0.20;;;12.80;98.90;;;;;;5492417;25;20283;-79
2024/04/19 08:22:00;;;;;;;0.30;0.20;;;12.90;97.70;;;;;;5489182;26;20695;-73
2024/04/19 08:24:27;;;;;;;0.30;0.20;;;13.00;98.00;;;;;;5476253;26;20237;-74
2024/04/19 08:26:53;;;;;;;0.40;0.40;;;13.00;98.70;;;;;;5494978;26;20621;-74
2024/04/19 08:29:18;;;;;;;0.30;0.20;;;13.10;97.70;;;;;;5493228;26;20526;-82
2024/04/19 08:31:44;;;;;;;0.30;0.20;;;13.10;96.00;;;;;;5482518;26;20903;-75
2024/04/19 08:34:11;;;;;;;0.30;0.20;;;13.20;96.70;;;;;;5487454;26;20621;-76
2024/04/19 08:36:36;;;;;;;0.40;0.30;;;13.30;96.90;;;;;;5497297;26;20271;-75
2024/04/19 08:39:02;;;;;;;0.30;0.20;;;13.40;95.80;;;;;;5478717;26;20524;-80
2024/04/19 08:41:30;;;;;;;0.50;0.50;;;13.60;96.40;;;;;;5478565;26;20279;-81
2024/04/19 08:43:59;;;;;;;0.30;0.20;;;13.70;97.00;;;;;;5478438;26;20274;-78
2024/04/19 08:46:27;;;;;;;0.30;0.20;;;13.80;96.20;;;;;;5486820;26;20503;-79
2024/04/19 08:48:54;;;;;;;0.30;0.20;;;13.90;94.90;;;;;;5506095;25;20516;-79
2024/04/19 08:51:21;;;;;;;0.30;0.30;;;14.00;95.40;;;;;;5488771;26;20500;-79
2024/04/19 08:53:49;;;;;;;0.30;0.30;;;14.10;95.00;;;;;;5472692;26;20943;-74
2024/04/19 08:56:16;;;;;;;0.30;0.20;;;14.30;94.10;;;;;;5489122;26;21004;-74
2024/04/19 08:58:42;;;;;;;0.30;0.20;;;14.50;93.60;;;;;;5496489;25;20590;-74
2024/04/19 09:01:07;;;;;;;0.30;0.20;;;14.60;93.80;;;;;;5481882;26;20941;-79
2024/04/19 09:03:33;;;;;;;0.30;0.20;;;14.60;93.60;;;;;;5463880;26;20348;-80
2024/04/19 09:05:59;;;;;;;0.90;0.90;;;14.60;93.00;;;;;;5475799;26;20235;-74
2024/04/19 09:08:25;;;;;;;0.30;0.20;;;14.70;92.30;;;;;;5497717;26;20244;-80
2024/04/19 09:10:51;;;;;;;0.60;0.47;;;14.70;92.60;;;;;;5470395;26;20551;-79
2024/04/19 09:13:17;;;;;;;0.77;0.77;;;14.60;92.60;;;;;;5489200;26;20446;-74
2024/04/19 09:15:46;;;;;;;0.30;0.20;;;14.50;92.70;;;;;;5471348;26;20235;-78
2024/04/19 09:18:12;;;;;;;0.30;0.20;;;14.40;92.00;;;;;;5475002;26;20473;-79
2024/04/19 09:20:47;;;;;;;0.30;0.20;;;14.40;92.60;;;;;;5472619;26;20562;-74
2024/04/19 09:23:12;;;;;;;0.30;0.30;;;14.50;92.20;;;;;;5483564;26;20679;-79
2024/04/19 09:25:38;;;;;;;0.47;0.47;;;14.60;92.10;;;;;;5498209;26;20460;-78
2024/04/19 09:28:05;;;;;;;0.30;0.20;;;14.60;91.90;;;;;;5497549;26;20527;-78
2024/04/19 09:30:31;;;;;;;0.30;0.20;;;14.60;92.30;;;;;;5478207;26;20497;-74
2024/04/19 09:32:57;;;;;;;0.30;0.20;;;14.70;92.40;;;;;;5483047;26;20518;-78
2024/04/19 09:35:30;;;;;;;0.30;0.20;;;14.80;92.40;;;;;;5485869;25;20488;-74
2024/04/19 09:37:58;;;;;;;0.30;0.27;;;14.80;92.90;;;;;;5479183;26;20271;-78
2024/04/19 09:40:26;;;;;;;0.43;0.43;;;14.80;91.80;;;;;;5496475;25;20441;-78
2024/04/19 09:42:54;;;;;;;0.60;0.40;;;14.90;91.00;;;;;;5489661;26;20840;-78
2024/04/19 09:45:21;;;;;;;0.30;0.20;;;14.90;91.40;;;;;;5494494;26;21004;-79
2024/04/19 09:47:53;;;;;;;1.40;0.90;;;14.90;90.10;;;;;;5476945;26;20926;-79
2024/04/19 09:50:21;;;;;;;0.30;0.20;;;14.90;89.40;;;;;;5471786;26;20457;-79
2024/04/19 09:52:51;;;;;;;0.30;0.20;;;15.00;88.30;;;;;;5483799;26;20502;-78
2024/04/19 09:55:21;;;;;;;0.30;0.20;;;15.00;88.00;;;;;;5488779;25;20586;-74
2024/04/19 09:57:48;;;;;;;0.30;0.20;;;15.00;89.20;;;;;;5498634;25;20470;-78
2024/04/19 10:00:17;;;;;;;0.30;0.30;;;15.00;88.80;;;;;;5487360;26;20500;-74
2024/04/19 10:02:43;;;;;;;0.47;0.47;;;15.10;89.60;;;;;;5489001;26;21125;-78
2024/04/19 10:05:10;;;;;;;0.30;0.20;;;15.20;88.90;;;;;;5482499;26;21183;-79
2024/04/19 10:07:37;;;;;;;0.30;0.20;;;15.20;90.00;;;;;;5507719;26;20515;-74
2024/04/19 10:10:04;;;;;;;4.57;0.67;;;15.10;89.10;;;;;;5487816;26;20939;-73
2024/04/19 10:12:33;;;;;;;0.60;0.60;;;15.10;90.40;;;;;;5484301;25;20860;-73
2024/04/19 10:14:59;;;;;;;0.30;0.30;;;15.10;90.50;;;;;;5482043;25;20454;-74
2024/04/19 10:17:24;;;;;;;0.30;0.20;;;15.10;89.30;;;;;;5492744;25;20530;-78
2024/04/19 10:19:50;;;;;;;0.50;0.50;;;15.10;90.00;;;;;;5480974;26;20231;-74
2024/04/19 10:22:22;;;;;;;0.30;0.20;;;15.10;90.40;;;;;;5479654;26;20237;-78
2024/04/19 10:25:00;;;;;;;0.30;0.27;;;15.20;90.00;;;;;;5499542;26;20511;-78
2024/04/19 10:27:29;;;;;;;1.03;0.90;;;15.20;89.10;;;;;;5494470;26;20465;-78
2024/04/19 10:29:57;;;;;;;0.30;0.20;;;15.20;89.10;;;;;;5475552;26;20446;-74
2024/04/19 10:32:23;;;;;;;0.80;0.80;;;15.20;90.40;;;;;;5489536;26;20534;-74
2024/04/19 10:34:51;;;;;;;2.10;1.53;;;15.30;90.50;;;;;;5474918;26;20866;-78
2024/04/19 10:37:17;;;;;;;0.40;0.40;;;15.30;90.40;;;;;;5501902;26;20216;-74
2024/04/19 10:39:42;;;;;;;1.70;0.43;;;15.40;89.70;;;;;;5484341;25;20506;-78
2024/04/19 10:42:09;;;;;;;0.30;0.20;;;15.40;89.50;;;;;;5489529;26;20458;-78
2024/04/19 10:44:39;;;;;;;0.30;0.20;;;15.50;89.20;;;;;;5487535;25;20769;-74
2024/04/19 10:47:05;;;;;;;0.30;0.30;;;15.50;88.20;;;;;;5478682;26;20575;-74
2024/04/19 10:49:31;;;;;;;0.30;0.20;;;15.50;87.60;;;;;;5483346;26;20676;-79
2024/04/19 10:51:59;;;;;;;0.30;0.20;;;15.40;87.80;;;;;;5484146;26;20458;-79
2024/04/19 10:54:27;;;;;;;0.30;0.20;;;15.40;87.30;;;;;;5486894;26;20537;-74
2024/04/19 10:56:56;;;;;;;0.50;0.50;;;15.40;88.20;;;;;;5480655;25;20462;-78
2024/04/19 10:59:22;;;;;;;0.40;0.40;;;15.40;86.10;;;;;;5490081;26;20458;-78
2024/04/19 11:01:49;;;;;;;0.57;0.57;;;15.50;87.20;;;;;;5492120;25;20579;-78
2024/04/19 11:04:15;;;;;;;0.40;0.40;;;15.60;86.50;;;;;;5490449;25;20243;-74
2024/04/19 11:06:40;;;;;;;0.40;0.40;;;15.60;85.00;;;;;;5485081;25;20539;-73
2024/04/19 11:09:07;;;;;;;0.30;0.30;;;15.70;86.10;;;;;;5491164;25;20244;-79
2024/04/19 11:11:42;;;;;;;0.30;0.30;;;15.70;86.20;;;;;;5492004;25;20231;-74
2024/04/19 11:14:11;;;;;;;0.60;0.60;;;15.70;84.60;;;;;;5493080;25;21154;-79
2024/04/19 11:16:36;;;;;;;0.30;0.20;;;15.80;82.70;;;;;;5480993;25;20526;-79
2024/04/19 11:19:03;;;;;;;0.30;0.20;;;15.80;82.10;;;;;;5489390;25;20993;-74
2024/04/19 11:21:29;;;;;;;0.30;0.30;;;15.80;83.10;;;;;;5477668;25;20227;-74
2024/04/19 11:23:55;;;;;;;0.30;0.20;;;15.80;83.50;;;;;;5483739;25;20779;-79
2024/04/19 11:26:21;;;;;;;0.30;0.20;;;15.80;81.80;;;;;;5487488;25;20224;-74
2024/04/19 11:28:47;;;;;;;0.50;0.50;;;15.80;82.10;;;;;;5495708;25;20460;-79
2024/04/19 11:31:14;;;;;;;0.30;0.20;;;15.80;82.70;;;;;;5496138;25;20243;-75
2024/04/19 11:33:40;;;;;;;0.90;0.77;;;15.90;82.30;;;;;;5488324;25;20478;-74
2024/04/19 11:36:09;;;;;;;0.30;0.20;;;15.90;82.00;;;;;;5476776;25;21098;-79
2024/04/19 11:38:35;;;;;;;0.50;0.43;;;15.90;82.40;;;;;;5480843;25;20727;-79
2024/04/19 11:41:01;;;;;;;0.30;0.20;;;16.00;81.30;;;;;;5484827;25;20438;-74
2024/04/19 11:43:27;;;;;;;0.30;0.30;;;16.00;81.00;;;;;;5479199;25;20535;-78
2024/04/19 11:45:53;;;;;;;0.30;0.20;;;16.10;80.70;;;;;;5479940;25;21028;-79
2024/04/19 11:48:24;;;;;;;0.30;0.20;;;16.10;81.50;;;;;;5487917;26;20266;-78
2024/04/19 11:50:49;;;;;;;0.30;0.20;;;16.20;81.80;;;;;;5487789;26;21059;-73
2024/04/19 11:53:15;;;;;;;0.30;0.20;;;16.20;81.00;;;;;;5494466;26;20861;-79
2024/04/19 11:55:41;;;;;;;0.40;0.40;;;16.30;80.40;;;;;;5486148;26;20316;-74
2024/04/19 11:58:07;;;;;;;0.30;0.20;;;16.30;81.60;;;;;;5482703;25;20852;-79
2024/04/19 12:00:32;;;;;;;0.40;0.37;;;16.30;81.50;;;;;;5479878;26;20232;-74
2024/04/19 12:02:58;;;;;;;0.30;0.20;;;16.30;80.70;;;;;;5485669;26;20680;-74
2024/04/19 12:05:24;;;;;;;0.50;0.50;;;16.40;81.00;;;;;;5487924;26;20487;-78
2024/04/19 12:07:50;;;;;;;0.30;0.20;;;16.40;81.00;;;;;;5481127;25;20480;-79
2024/04/19 12:10:17;;;;;;;0.30;0.20;;;16.50;81.10;;;;;;5480971;26;20685;-74
2024/04/19 12:12:43;;;;;;;0.37;0.33;;;16.50;78.80;;;;;;5475831;26;21072;-74
2024/04/19 12:15:08;;;;;;;0.80;0.50;;;16.50;78.10;;;;;;5472068;26;20445;-75
2024/04/19 12:17:34;;;;;;;0.30;0.20;;;16.40;78.50;;;;;;5473007;26;20229;-73
2024/04/19 12:20:00;;;;;;;0.30;0.20;;;16.40;78.60;;;;;;5494861;25;20337;-79
2024/04/19 12:22:25;;;;;;;0.30;0.20;;;16.40;77.70;;;;;;5496057;26;20278;-79
2024/04/19 12:24:52;;;;;;;0.40;0.40;;;16.50;78.10;;;;;;5497348;26;20278;-79
2024/04/19 12:27:17;;;;;;;0.40;0.20;;;16.50;79.10;;;;;;5482336;26;20339;-74
2024/04/19 12:29:45;;;;;;;0.30;0.20;;;16.60;79.60;;;;;;5474440;26;21929;-74
2024/04/19 12:32:11;;;;;;;0.30;0.20;;;16.70;78.50;;;;;;5475500;26;20274;-79
2024/04/19 12:34:38;;;;;;;2.23;1.10;;;16.70;77.50;;;;;;5465780;26;20973;-74
2024/04/19 12:37:04;;;;;;;0.30;0.20;;;16.70;77.60;;;;;;5466522;26;20502;-79
2024/04/19 12:39:29;;;;;;;0.30;0.30;;;16.60;76.90;;;;;;5469360;26;20819;-74
2024/04/19 12:41:56;;;;;;;0.30;0.20;;;16.60;76.40;;;;;;5464784;26;20848;-74
2024/04/19 12:44:22;;;;;;;2.00;1.60;;;16.60;76.90;;;;;;5482197;26;20248;-79
2024/04/19 12:46:51;;;;;;;0.30;0.20;;;16.60;77.50;;;;;;5497028;26;21024;-79
2024/04/19 12:49:20;;;;;;;0.60;0.50;;;16.60;76.70;;;;;;5485424;26;20468;-74
2024/04/19 12:51:46;;;;;;;0.30;0.20;;;16.60;77.60;;;;;;5473154;26;20546;-74
2024/04/19 12:54:14;;;;;;;0.30;0.20;;;16.50;75.70;;;;;;5467621;26;20462;-74